Time;durP1;ratioP1;P1;durP2;ratioP2;P2;SDS_P1;SDS_P2;PMS_P1;PMS_P2;Temp;Humidity;BMP_temperature;BMP_pressure;BME280_temperature;BME280_humidity;BME280_pressure;Samples;Min_cycle;Max_cycle;Signal;HPM_P1;HPM_P2
2022/12/08 05:30:42;;;;;;;;;53.00;39.75;;;;;5.37;74.04;100838.16;5067265;27;45800;-76
2022/12/08 05:33:08;;;;;;;;;48.50;32.25;;;;;5.19;74.29;100818.22;5020489;28;45485;-76
2022/12/08 05:35:33;;;;;;;;;43.50;36.00;;;;;5.24;74.17;100832.28;5022156;28;45584;-77
2022/12/08 05:37:58;;;;;;;;;44.75;37.50;;;;;5.22;74.57;100836.75;5020743;28;45376;-76
2022/12/08 05:40:23;;;;;;;;;41.25;34.50;;;;;5.17;75.13;100834.22;5019703;28;45301;-76
2022/12/08 05:42:49;;;;;;;;;44.50;37.50;;;;;5.15;75.25;100840.44;5019357;28;45441;-77
2022/12/08 05:45:14;;;;;;;;;48.00;39.00;;;;;5.04;74.92;100830.06;5018477;28;45519;-77
2022/12/08 05:47:39;;;;;;;;;43.00;37.50;;;;;5.10;75.12;100832.59;5014710;28;46024;-78
2022/12/08 05:50:05;;;;;;;;;53.00;42.50;;;;;5.20;74.97;100838.56;5014575;28;45473;-77
2022/12/08 05:52:31;;;;;;;;;53.50;42.50;;;;;5.23;75.39;100839.38;5014996;28;45357;-77
2022/12/08 05:54:57;;;;;;;;;41.25;38.75;;;;;5.21;75.15;100819.03;5013408;28;45532;-77
2022/12/08 05:57:22;;;;;;;;;47.00;39.25;;;;;5.21;74.37;100825.25;5013014;28;48602;-78
2022/12/08 05:59:48;;;;;;;;;44.25;38.00;;;;;5.24;74.60;100840.25;5013399;28;45316;-78
2022/12/08 06:02:14;;;;;;;;;36.25;33.00;;;;;5.11;74.59;100831.66;5014595;28;45274;-76
2022/12/08 06:04:40;;;;;;;;;39.25;30.00;;;;;5.10;74.99;100829.06;5014335;28;45513;-77
2022/12/08 06:07:06;;;;;;;;;40.50;34.50;;;;;4.98;74.92;100819.56;5014502;28;45613;-78
2022/12/08 06:09:32;;;;;;;;;43.00;33.50;;;;;5.08;74.81;100834.41;5015573;28;45314;-76
2022/12/08 06:11:57;;;;;;;;;29.50;24.25;;;;;4.93;74.70;100800.22;5017069;28;45512;-75
2022/12/08 06:14:22;;;;;;;;;37.00;30.25;;;;;5.03;74.83;100825.66;5005628;28;45393;-77
2022/12/08 06:16:48;;;;;;;;;32.25;28.50;;;;;4.93;75.40;100829.44;5012475;28;46571;-72
2022/12/08 06:19:14;;;;;;;;;38.25;33.25;;;;;4.74;75.35;100799.72;5014214;28;45337;-76
2022/12/08 06:21:39;;;;;;;;;39.50;32.50;;;;;4.90;75.46;100824.19;5014575;28;45376;-75
2022/12/08 06:24:05;;;;;;;;;48.75;34.75;;;;;4.83;75.65;100820.78;5014036;28;45313;-79
2022/12/08 06:26:30;;;;;;;;;38.75;33.25;;;;;4.92;75.23;100825.91;5012623;28;47746;-78
2022/12/08 06:28:56;;;;;;;;;33.50;31.50;;;;;4.90;75.61;100817.09;5014159;28;45318;-73
2022/12/08 06:31:25;;;;;;;;;35.00;34.00;;;;;4.84;75.26;100811.91;5028546;28;45374;-77
2022/12/08 06:33:52;;;;;;;;;39.50;37.75;;;;;4.71;75.44;100810.41;5037700;28;47356;-73
2022/12/08 06:36:20;;;;;;;;;32.50;30.25;;;;;4.83;75.80;100825.22;5054174;28;46230;-74
2022/12/08 06:38:46;;;;;;;;;48.25;36.00;;;;;4.80;75.67;100819.97;5035953;28;45758;-72
2022/12/08 06:41:12;;;;;;;;;34.00;30.25;;;;;4.72;75.85;100800.66;5054421;28;45544;-72
2022/12/08 06:43:38;;;;;;;;;36.75;32.50;;;;;4.72;76.07;100798.88;5053691;28;45453;-74
2022/12/08 06:46:09;;;;;;;;;34.75;32.00;;;;;4.72;76.20;100796.22;5053845;28;45832;-72
2022/12/08 06:48:34;;;;;;;;;39.75;34.25;;;;;4.80;76.10;100798.72;5053945;28;45427;-76
2022/12/08 06:51:29;;;;;;;;;37.50;31.75;;;;;4.94;75.41;100805.47;5054979;28;45489;-73
2022/12/08 06:53:54;;;;;;;;;38.50;33.00;;;;;4.75;75.37;100811.22;5036372;28;45340;-73
2022/12/08 06:56:22;;;;;;;;;40.00;36.50;;;;;4.61;75.92;100792.03;5053792;28;46181;-74
2022/12/08 06:58:48;;;;;;;;;36.00;34.50;;;;;4.61;75.85;100815.94;5054308;28;45381;-75
2022/12/08 07:01:14;;;;;;;;;33.25;32.00;;;;;4.55;76.12;100817.81;5053635;28;45405;-74
2022/12/08 07:03:42;;;;;;;;;40.25;32.50;;;;;4.60;76.03;100814.16;5053843;28;45907;-74
2022/12/08 07:06:14;;;;;;;;;23.75;23.75;;;;;4.64;76.15;100794.63;5053660;28;45426;-73
2022/12/08 07:08:39;;;;;;;;;27.25;25.75;;;;;4.52;75.37;100782.47;5053893;28;45391;-75
2022/12/08 07:11:08;;;;;;;;;29.50;25.00;;;;;4.68;75.24;100791.03;5040538;28;45265;-75
2022/12/08 07:13:33;;;;;;;;;33.25;29.50;;;;;4.71;75.28;100806.88;5049045;28;45353;-74
2022/12/08 07:15:58;;;;;;;;;24.75;22.25;;;;;4.66;74.93;100806.97;5052654;28;45927;-73
2022/12/08 07:18:24;;;;;;;;;26.25;24.75;;;;;4.52;75.68;100812.56;5057540;28;45346;-73
2022/12/08 07:20:49;;;;;;;;;21.25;18.00;;;;;4.61;75.52;100803.53;5057459;28;45588;-73
2022/12/08 07:23:14;;;;;;;;;32.25;26.25;;;;;4.60;75.10;100811.53;5056822;28;45530;-73
2022/12/08 07:25:40;;;;;;;;;26.00;22.25;;;;;4.59;75.39;100809.78;5054268;28;46116;-73
2022/12/08 07:28:11;;;;;;;;;31.25;25.25;;;;;4.59;74.66;100816.00;5053474;28;45486;-74
2022/12/08 07:30:37;;;;;;;;;30.75;25.00;;;;;4.54;74.93;100812.53;5056508;28;45328;-73
2022/12/08 07:33:04;;;;;;;;;31.00;21.50;;;;;4.53;74.37;100805.47;5056558;28;45355;-74
2022/12/08 07:35:30;;;;;;;;;33.75;25.50;;;;;4.48;75.27;100804.69;5057984;28;46206;-75
2022/12/08 07:37:56;;;;;;;;;29.50;27.25;;;;;4.48;75.43;100804.69;5057072;28;45371;-73
2022/12/08 07:40:22;;;;;;;;;31.75;25.00;;;;;4.53;74.66;100795.72;5056842;28;45356;-74
2022/12/08 07:42:47;;;;;;;;;35.50;27.00;;;;;4.57;74.94;100821.31;5057034;28;45335;-74
2022/12/08 07:45:12;;;;;;;;;27.75;24.50;;;;;4.63;74.78;100817.66;5056917;28;45915;-76
2022/12/08 07:47:38;;;;;;;;;34.25;26.50;;;;;4.71;74.40;100810.41;5056268;28;45326;-74
2022/12/08 07:50:05;;;;;;;;;24.75;22.00;;;;;4.67;74.41;100805.19;5057114;28;45225;-74
2022/12/08 07:52:33;;;;;;;;;25.25;22.50;;;;;4.59;74.70;100789.44;5038712;28;46286;-73
2022/12/08 07:54:58;;;;;;;;;28.25;26.50;;;;;4.76;74.18;100810.31;5060025;28;46066;-75
2022/12/08 07:57:23;;;;;;;;;25.00;24.00;;;;;4.74;73.68;100807.69;5042628;28;45485;-73
2022/12/08 07:59:49;;;;;;;;;23.00;17.50;;;;;4.63;73.40;100814.13;5041703;28;45455;-75
2022/12/08 08:02:18;;;;;;;;;24.00;20.25;;;;;4.54;73.62;100801.91;5059453;28;45280;-73
2022/12/08 08:04:44;;;;;;;;;22.00;22.00;;;;;4.60;73.68;100800.91;5058910;28;46123;-75
2022/12/08 08:07:11;;;;;;;;;26.75;22.00;;;;;4.59;73.64;100805.38;5059873;28;45321;-73
2022/12/08 08:09:36;;;;;;;;;24.00;20.50;;;;;4.65;73.61;100799.03;5039562;28;45261;-74
2022/12/08 08:12:01;;;;;;;;;26.25;23.75;;;;;4.80;73.36;100796.06;5038748;28;45238;-76
2022/12/08 08:14:27;;;;;;;;;22.75;21.00;;;;;4.50;72.65;100748.03;5046984;28;46470;-75
2022/12/08 08:16:52;;;;;;;;;32.75;27.25;;;;;4.41;73.24;100747.34;5056302;28;45430;-73
2022/12/08 08:19:18;;;;;;;;;34.25;24.25;;;;;4.72;72.96;100796.22;5038248;28;45417;-74
2022/12/08 08:21:43;;;;;;;;;25.00;21.25;;;;;4.72;73.26;100785.59;5056365;28;45983;-76
2022/12/08 08:24:08;;;;;;;;;28.75;26.00;;;;;4.60;73.35;100787.63;5055620;28;45990;-75
2022/12/08 08:26:34;;;;;;;;;26.00;24.75;;;;;4.63;74.12;100787.56;5055211;28;45340;-73
2022/12/08 08:29:00;;;;;;;;;33.50;26.25;;;;;4.64;73.47;100787.53;5056262;28;45512;-75
2022/12/08 08:31:25;;;;;;;;;27.75;25.25;;;;;4.74;72.76;100790.88;5055487;28;45422;-73
2022/12/08 08:33:51;;;;;;;;;23.75;22.25;;;;;4.65;73.53;100796.38;5057939;28;45696;-75
2022/12/08 08:36:17;;;;;;;;;31.75;28.50;;;;;4.59;73.68;100788.56;5054811;28;45728;-73
2022/12/08 08:38:43;;;;;;;;;26.00;18.00;;;;;4.46;73.82;100767.56;5055836;28;45944;-74
2022/12/08 08:41:11;;;;;;;;;25.50;23.50;;;;;4.65;73.19;100781.34;5053167;28;45949;-73
2022/12/08 08:43:37;;;;;;;;;35.00;30.75;;;;;4.68;73.33;100773.28;5055550;28;45382;-75
2022/12/08 08:46:03;;;;;;;;;30.25;27.25;;;;;4.78;73.62;100776.63;5055797;28;45261;-74
2022/12/08 08:48:30;;;;;;;;;34.25;31.00;;;;;4.84;73.22;100766.75;5055811;28;45457;-74
2022/12/08 08:50:57;;;;;;;;;23.00;23.00;;;;;4.71;72.66;100741.34;5055571;28;45999;-75
2022/12/08 08:53:23;;;;;;;;;28.50;25.75;;;;;4.84;72.55;100760.56;5055335;28;45374;-73
2022/12/08 08:55:50;;;;;;;;;24.75;23.00;;;;;4.83;72.53;100766.78;5055917;28;45273;-73
2022/12/08 08:58:15;;;;;;;;;30.25;24.00;;;;;4.82;72.58;100768.56;5055622;28;45281;-75
2022/12/08 09:00:41;;;;;;;;;26.50;21.25;;;;;4.81;72.27;100769.47;5055260;28;45522;-75
2022/12/08 09:03:06;;;;;;;;;37.00;27.00;;;;;4.72;72.72;100764.34;5055334;28;46124;-73
2022/12/08 09:05:32;;;;;;;;;26.00;22.00;;;;;4.64;72.54;100753.03;5055415;28;45341;-76
2022/12/08 09:07:57;;;;;;;;;33.75;25.50;;;;;4.70;72.44;100763.50;5055014;28;45199;-74
2022/12/08 09:10:22;;;;;;;;;32.00;27.75;;;;;4.77;72.39;100759.81;5055475;28;45345;-73
2022/12/08 09:12:48;;;;;;;;;24.00;20.00;;;;;4.89;72.20;100766.63;5037373;28;47317;-75
2022/12/08 09:15:13;;;;;;;;;32.75;27.50;;;;;4.73;72.47;100747.53;5047224;28;45282;-75
2022/12/08 09:17:38;;;;;;;;;27.50;26.75;;;;;4.79;72.83;100765.97;5055179;28;45610;-74
2022/12/08 09:20:05;;;;;;;;;30.50;27.25;;;;;4.76;72.60;100766.06;5055282;28;45464;-73
2022/12/08 09:22:31;;;;;;;;;34.00;29.75;;;;;4.72;72.26;100764.34;5054960;28;46441;-75
2022/12/08 09:24:56;;;;;;;;;31.25;29.00;;;;;4.67;72.49;100754.75;5055616;28;45324;-73
2022/12/08 09:27:21;;;;;;;;;26.75;25.50;;;;;4.79;72.51;100765.97;5055408;28;45650;-75
2022/12/08 09:29:47;;;;;;;;;22.50;21.50;;;;;4.75;71.94;100771.38;5055294;28;45291;-76
2022/12/08 09:32:13;;;;;;;;;19.75;18.00;;;;;4.72;71.81;100764.34;5054286;28;45697;-73
2022/12/08 09:34:38;;;;;;;;;23.50;23.50;;;;;4.69;72.06;100764.41;5056270;28;45335;-74
2022/12/08 09:37:03;;;;;;;;;28.00;26.50;;;;;4.68;72.07;100757.34;5055055;28;45446;-74
2022/12/08 09:39:28;;;;;;;;;29.00;27.00;;;;;4.77;71.75;100762.47;5055135;28;45253;-75
2022/12/08 09:42:01;;;;;;;;;33.25;29.50;;;;;4.72;72.11;100751.06;5036844;28;46043;-75
2022/12/08 09:44:43;;;;;;;;;31.50;29.50;;;;;4.87;72.03;100765.78;5055142;28;45391;-74
2022/12/08 09:47:30;;;;;;;;;25.00;25.00;;;;;4.80;71.57;100754.44;5054818;28;45598;-75
2022/12/08 09:50:11;;;;;;;;;27.75;27.75;;;;;4.81;71.29;100742.03;5054641;28;45502;-75
2022/12/08 09:52:51;;;;;;;;;22.25;21.00;;;;;4.83;70.86;100746.41;5055138;28;45319;-74
2022/12/08 09:55:27;;;;;;;;;25.25;22.25;;;;;4.90;71.31;100748.00;5054964;28;45482;-74
2022/12/08 09:58:00;;;;;;;;;29.00;25.00;;;;;4.76;71.27;100714.72;5055469;28;45403;-74
2022/12/08 10:00:26;;;;;;;;;27.25;23.25;;;;;4.98;70.68;100737.22;5055134;28;45384;-74
2022/12/08 10:02:51;;;;;;;;;42.00;34.00;;;;;5.06;70.98;100742.34;5037344;28;47573;-73
2022/12/08 10:05:16;;;;;;;;;31.75;26.25;;;;;5.02;71.04;100738.88;5055254;28;45318;-76
2022/12/08 10:07:45;;;;;;;;;38.00;34.00;;;;;5.08;70.54;100735.22;5055331;28;45660;-76
2022/12/08 10:10:41;;;;;;;;;31.25;26.75;;;;;5.12;70.25;100737.75;5055123;28;45564;-74
2022/12/08 10:13:23;;;;;;;;;29.25;28.75;;;;;5.12;70.56;100718.28;5053527;28;48617;-74
2022/12/08 10:16:20;;;;;;;;;26.00;24.75;;;;;5.18;70.12;100720.81;5048430;28;45280;-73
2022/12/08 10:18:51;;;;;;;;;26.25;24.75;;;;;5.14;69.65;100713.81;5055393;28;45233;-75
2022/12/08 10:21:21;;;;;;;;;32.00;26.75;;;;;5.26;69.83;100725.03;5057875;28;45403;-75
2022/12/08 10:23:50;;;;;;;;;29.50;27.50;;;;;5.34;69.94;100730.16;5040124;28;45400;-74
2022/12/08 10:26:18;;;;;;;;;28.50;24.75;;;;;5.33;69.83;100723.97;5057252;28;45379;-74
2022/12/08 10:28:44;;;;;;;;;25.00;23.25;;;;;5.37;69.59;100716.75;5057154;28;45463;-74
2022/12/08 10:31:15;;;;;;;;;30.25;27.00;;;;;5.30;69.50;100712.50;5057020;28;45426;-74
2022/12/08 10:33:41;;;;;;;;;30.50;27.00;;;;;5.27;69.56;100705.47;5038397;28;47244;-74
2022/12/08 10:36:09;;;;;;;;;26.75;26.50;;;;;5.25;69.30;100702.00;5054462;28;45457;-72
2022/12/08 10:38:36;;;;;;;;;19.50;19.50;;;;;5.14;69.87;100696.06;5054286;28;45426;-74
2022/12/08 10:41:10;;;;;;;;;29.75;25.25;;;;;5.12;69.45;100673.97;5054424;28;45396;-74
2022/12/08 10:43:53;;;;;;;;;32.00;28.00;;;;;5.28;69.88;100688.63;5053987;28;46302;-74
2022/12/08 10:46:24;;;;;;;;;32.00;26.00;;;;;5.34;69.43;100679.66;5054096;28;45428;-74
2022/12/08 10:49:10;;;;;;;;;40.25;33.75;;;;;5.36;69.39;100685.78;5053986;28;45343;-74
2022/12/08 10:51:42;;;;;;;;;28.00;25.25;;;;;5.27;69.61;100672.75;5057843;28;45356;-75
2022/12/08 10:54:32;;;;;;;;;33.25;31.50;;;;;5.29;69.59;100679.75;5057534;28;46419;-74
2022/12/08 10:56:57;;;;;;;;;29.25;24.50;;;;;5.27;69.68;100678.91;5044652;28;45447;-74
2022/12/08 10:59:24;;;;;;;;;37.50;30.50;;;;;5.13;70.46;100656.25;5058055;28;45402;-74
2022/12/08 11:01:52;;;;;;;;;28.00;26.75;;;;;5.21;69.87;100671.09;5057688;28;45348;-76
2022/12/08 11:04:21;;;;;;;;;25.00;25.00;;;;;5.25;69.92;100669.25;5057506;28;46630;-74
2022/12/08 11:06:49;;;;;;;;;32.50;31.25;;;;;5.25;70.45;100663.94;5057750;28;45319;-74
2022/12/08 11:09:14;;;;;;;;;30.75;30.00;;;;;5.29;69.54;100660.25;5057520;28;45413;-75
2022/12/08 11:11:52;;;;;;;;;29.25;29.25;;;;;5.39;69.85;100661.78;5057616;28;45323;-75
2022/12/08 11:14:23;;;;;;;;;34.00;30.50;;;;;5.41;69.58;100664.41;5048493;28;46486;-75
2022/12/08 11:16:52;;;;;;;;;31.25;27.50;;;;;5.32;68.89;100630.97;5057351;28;45363;-74
2022/12/08 11:19:19;;;;;;;;;35.00;31.00;;;;;5.40;69.19;100631.63;5057452;28;45264;-73
2022/12/08 11:21:45;;;;;;;;;28.00;27.50;;;;;5.39;68.82;100642.28;5057172;28;45521;-74
2022/12/08 11:24:13;;;;;;;;;32.25;28.25;;;;;5.45;68.92;100645.66;5056787;28;46381;-76
2022/12/08 11:26:44;;;;;;;;;37.50;30.25;;;;;5.45;69.01;100652.75;5057989;28;45404;-75
2022/12/08 11:29:11;;;;;;;;;30.25;30.25;;;;;5.39;69.40;100631.66;5057636;28;45358;-74
2022/12/08 11:31:42;;;;;;;;;32.00;25.50;;;;;5.45;69.01;100650.97;5057123;28;45446;-73
2022/12/08 11:34:21;;;;;;;;;36.00;32.00;;;;;5.41;69.33;100645.78;5058838;28;46438;-76
2022/12/08 11:36:48;;;;;;;;;32.75;32.75;;;;;5.37;69.38;100638.78;5057382;28;45443;-73
2022/12/08 11:39:14;;;;;;;;;38.75;34.50;;;;;5.32;69.11;100628.31;5057500;28;45272;-74
2022/12/08 11:41:44;;;;;;;;;31.75;29.75;;;;;5.36;68.89;100634.41;5057325;28;45454;-74
2022/12/08 11:44:37;;;;;;;;;32.25;32.00;;;;;5.44;69.12;100629.78;5056987;28;46417;-74
2022/12/08 11:47:44;;;;;;;;;32.25;28.50;;;;;5.56;68.99;100624.09;5056780;28;45338;-74
2022/12/08 11:50:35;;;;;;;;;31.75;28.50;;;;;5.51;68.69;100599.44;5056159;28;45377;-74
2022/12/08 11:53:00;;;;;;;;;35.75;31.50;;;;;5.69;68.33;100625.53;5056880;28;45333;-75
2022/12/08 11:55:41;;;;;;;;;31.00;31.00;;;;;5.66;68.08;100628.25;5056809;28;45425;-73
2022/12/08 11:58:10;;;;;;;;;33.00;27.50;;;;;5.57;68.31;100629.38;5056751;28;45382;-75
2022/12/08 12:00:35;;;;;;;;;37.25;34.00;;;;;5.49;68.45;100620.75;5056483;28;45365;-74
2022/12/08 12:03:08;;;;;;;;;36.75;34.00;;;;;5.39;68.26;100589.13;5056513;28;45560;-75
2022/12/08 12:05:48;;;;;;;;;29.00;27.75;;;;;5.48;67.99;100619.00;5056588;28;45603;-73
2022/12/08 12:08:39;;;;;;;;;28.50;28.50;;;;;5.52;68.40;100612.69;5056414;28;45371;-75
2022/12/08 12:14:41;;;;;;;;;36.75;32.75;;;;;5.55;67.70;100614.38;5048428;28;45412;-75
2022/12/08 12:17:28;;;;;;;;;37.00;35.25;;;;;5.39;68.35;100583.81;5056432;28;45342;-75
2022/12/08 12:19:57;;;;;;;;;37.50;29.75;;;;;5.35;68.55;100571.53;5056488;28;45341;-74
2022/12/08 12:22:28;;;;;;;;;34.75;29.75;;;;;5.56;68.69;100597.50;5056573;28;45542;-74
2022/12/08 12:24:53;;;;;;;;;23.00;19.00;;;;;5.68;67.97;100589.22;5056245;28;45229;-77
2022/12/08 12:27:40;;;;;;;;;30.00;24.50;;;;;5.61;68.11;100583.16;5056181;28;46185;-75
2022/12/08 12:30:17;;;;;;;;;31.75;29.25;;;;;5.69;67.67;100586.50;5056397;28;45384;-74
2022/12/08 12:32:47;;;;;;;;;26.50;26.50;;;;;5.79;67.54;100588.88;5056207;28;45302;-74
2022/12/08 12:35:27;;;;;;;;;33.50;32.75;;;;;5.60;67.78;100573.47;5038458;28;45423;-73
2022/12/08 12:37:58;;;;;;;;;31.50;26.75;;;;;5.69;67.63;100583.84;5056412;28;45490;-74
2022/12/08 12:40:27;;;;;;;;;31.00;29.25;;;;;5.69;67.82;100588.28;5056364;28;45416;-73
2022/12/08 12:42:55;;;;;;;;;30.75;28.50;;;;;5.61;67.71;100596.47;5056264;28;45526;-74
2022/12/08 12:45:20;;;;;;;;;38.50;33.75;;;;;5.56;68.36;100590.41;5058250;28;45275;-73
2022/12/08 12:48:07;;;;;;;;;40.75;33.25;;;;;5.65;68.30;100591.94;5057014;28;45254;-73
2022/12/08 12:50:32;;;;;;;;;32.25;30.50;;;;;5.71;68.06;100582.00;5042344;28;45230;-75
2022/12/08 12:53:16;;;;;;;;;35.25;32.50;;;;;5.84;67.66;100571.00;5060312;28;45505;-74
2022/12/08 12:55:44;;;;;;;;;37.00;34.25;;;;;5.87;67.55;100584.25;5042107;28;46753;-73
2022/12/08 12:58:41;;;;;;;;;37.75;32.50;;;;;5.87;67.63;100569.13;5058932;28;46389;-75
2022/12/08 13:01:12;;;;;;;;;45.50;36.00;;;;;5.94;67.81;100577.84;5029235;28;45266;-73
2022/12/08 13:04:08;;;;;;;;;32.00;29.75;;;;;5.96;67.00;100573.31;5056187;28;45348;-74
2022/12/08 13:06:47;;;;;;;;;27.25;21.50;;;;;5.81;67.04;100569.31;5038717;28;45504;-75
2022/12/08 13:09:38;;;;;;;;;40.50;36.50;;;;;5.69;67.53;100567.03;5055493;28;45264;-75
2022/12/08 13:12:10;;;;;;;;;39.50;34.00;;;;;5.70;68.24;100566.06;5045147;28;45280;-74
2022/12/08 13:14:46;;;;;;;;;18.50;15.75;;;;;5.75;67.90;100566.84;5045513;28;45523;-73
2022/12/08 13:17:19;;;;;;;;;32.75;30.75;;;;;5.73;67.69;100555.34;5055459;28;45386;-73
2022/12/08 13:19:46;;;;;;;;;33.50;27.00;;;;;5.75;67.89;100556.19;5038018;28;45769;-73
2022/12/08 13:22:49;;;;;;;;;39.75;32.00;;;;;5.77;67.52;100557.03;5055308;28;45468;-75
2022/12/08 13:25:39;;;;;;;;;31.50;27.25;;;;;5.76;67.84;100557.06;5047711;28;45494;-73
2022/12/08 13:28:17;;;;;;;;;33.25;33.25;;;;;5.73;67.88;100544.72;5042077;28;45632;-75
2022/12/08 13:30:47;;;;;;;;;37.25;30.00;;;;;5.85;67.49;100548.81;5048756;28;47270;-76
2022/12/08 13:33:21;;;;;;;;;33.00;27.50;;;;;5.87;67.26;100549.66;5046253;28;45895;-74
2022/12/08 13:35:55;;;;;;;;;33.00;31.00;;;;;5.92;67.74;100547.75;5050069;28;45341;-75
2022/12/08 13:38:26;;;;;;;;;42.00;37.25;;;;;5.94;67.61;100533.50;5054379;28;45360;-76
2022/12/08 13:40:55;;;;;;;;;39.50;38.25;;;;;6.03;66.74;100540.31;5049038;28;46400;-74
2022/12/08 13:43:31;;;;;;;;;39.50;35.50;;;;;6.02;67.34;100543.91;5052641;28;45318;-74
2022/12/08 13:45:57;;;;;;;;;37.50;28.50;;;;;5.96;67.38;100515.66;5033514;28;45441;-76
2022/12/08 13:48:31;;;;;;;;;39.75;37.75;;;;;6.07;66.82;100528.66;5055025;28;45281;-75
2022/12/08 13:51:37;;;;;;;;;45.25;38.50;;;;;6.07;66.71;100531.31;5053662;28;45518;-75
2022/12/08 13:54:11;;;;;;;;;34.00;31.75;;;;;6.04;66.81;100529.59;5009760;28;45280;-75
2022/12/08 13:56:42;;;;;;;;;39.75;35.75;;;;;6.00;66.66;100529.75;5054860;28;45400;-74
2022/12/08 13:59:26;;;;;;;;;39.25;33.25;;;;;5.96;66.82;100523.66;5054645;28;45493;-74
2022/12/08 14:01:53;;;;;;;;;42.00;35.50;;;;;5.92;67.06;100507.84;5036503;28;48503;-74
2022/12/08 14:04:21;;;;;;;;;36.25;33.25;;;;;5.99;66.92;100520.03;5054614;28;45359;-74
2022/12/08 14:06:49;;;;;;;;;38.50;38.25;;;;;5.86;67.47;100505.34;5054242;28;45296;-75
2022/12/08 14:09:20;;;;;;;;;38.25;34.00;;;;;6.00;67.00;100516.44;5035918;28;46739;-74
2022/12/08 14:11:53;;;;;;;;;33.75;30.50;;;;;5.97;66.89;100520.06;5054500;28;45315;-75
2022/12/08 14:14:29;;;;;;;;;39.25;30.50;;;;;6.00;66.83;100508.47;5036021;28;45315;-73
2022/12/08 14:16:59;;;;;;;;;48.25;37.25;;;;;5.96;66.71;100509.47;5054554;28;45375;-74
2022/12/08 14:19:28;;;;;;;;;37.75;36.75;;;;;5.92;66.81;100508.72;5036929;28;45448;-73
2022/12/08 14:22:02;;;;;;;;;38.75;34.50;;;;;5.87;67.13;100513.25;5054611;28;45617;-72
2022/12/08 14:24:29;;;;;;;;;42.00;38.25;;;;;5.76;67.10;100490.56;5052795;28;45451;-75
2022/12/08 14:27:01;;;;;;;;;39.75;33.00;;;;;5.87;67.17;100505.25;5036418;28;45391;-75
2022/12/08 14:29:35;;;;;;;;;50.00;41.00;;;;;5.99;66.96;100522.69;5036473;28;45509;-75
2022/12/08 14:32:01;;;;;;;;;40.75;38.25;;;;;5.82;67.09;100488.59;5053732;28;45361;-76
2022/12/08 14:34:26;;;;;;;;;39.75;36.00;;;;;5.96;66.70;100517.44;5049164;28;45411;-74
2022/12/08 14:36:52;;;;;;;;;41.00;35.50;;;;;5.89;66.90;100511.44;5053873;28;45489;-74
2022/12/08 14:39:18;;;;;;;;;45.00;38.75;;;;;5.78;66.74;100486.97;5054302;28;45534;-74
2022/12/08 14:41:58;;;;;;;;;40.75;34.75;;;;;5.87;67.21;100499.94;5053961;28;45469;-74
2022/12/08 14:44:24;;;;;;;;;46.50;39.00;;;;;5.81;66.96;100489.50;5054189;28;45516;-75
2022/12/08 14:47:07;;;;;;;;;38.00;35.25;;;;;5.71;67.41;100483.59;5054051;28;45507;-73
2022/12/08 14:49:37;;;;;;;;;42.75;35.50;;;;;5.71;67.94;100490.69;5053885;28;46412;-75
2022/12/08 14:52:10;;;;;;;;;35.00;30.75;;;;;5.79;67.56;100487.78;5054164;28;46668;-75
2022/12/08 14:54:36;;;;;;;;;39.25;36.50;;;;;5.82;67.26;100485.94;5054139;28;45445;-75
2022/12/08 14:57:03;;;;;;;;;44.50;35.75;;;;;5.85;66.70;100491.16;5054784;28;45287;-75
2022/12/08 14:59:31;;;;;;;;;33.00;32.75;;;;;5.86;66.84;100492.91;5054101;28;45339;-76
2022/12/08 15:02:10;;;;;;;;;29.00;28.50;;;;;5.89;66.30;100497.28;5053816;28;46091;-74
2022/12/08 15:04:42;;;;;;;;;31.25;28.75;;;;;5.91;66.45;100491.00;5053900;28;45418;-76
2022/12/08 15:07:18;;;;;;;;;40.75;38.00;;;;;5.89;66.00;100494.63;5053287;28;45488;-74
2022/12/08 15:09:47;;;;;;;;;34.75;32.75;;;;;5.68;66.42;100464.22;5053753;28;45578;-76
2022/12/08 15:12:21;;;;;;;;;37.75;33.00;;;;;5.84;66.86;100484.09;5056801;28;47286;-74
2022/12/08 15:15:00;;;;;;;;;32.00;29.25;;;;;5.66;65.89;100466.91;5039766;28;45300;-73
2022/12/08 15:17:41;;;;;;;;;28.75;27.00;;;;;5.74;65.91;100487.94;5058494;28;45385;-73
2022/12/08 15:20:26;;;;;;;;;28.00;24.50;;;;;5.75;65.73;100484.38;5057625;28;45497;-73
2022/12/08 15:22:53;;;;;;;;;36.75;29.50;;;;;5.72;65.86;100473.81;5054161;28;45497;-73
2022/12/08 15:25:18;;;;;;;;;37.50;29.75;;;;;5.77;66.15;100484.34;5054021;28;45258;-74
2022/12/08 15:27:44;;;;;;;;;38.25;33.25;;;;;5.80;66.25;100471.78;5053662;28;45427;-74
2022/12/08 15:30:14;;;;;;;;;33.75;32.25;;;;;5.76;66.42;100463.97;5052755;28;45236;-74
2022/12/08 15:32:40;;;;;;;;;30.50;26.00;;;;;5.79;66.75;100475.38;5052896;28;47758;-75
2022/12/08 15:35:06;;;;;;;;;36.00;31.00;;;;;5.88;66.64;100476.91;5037693;28;45549;-75
2022/12/08 15:37:31;;;;;;;;;39.25;37.75;;;;;5.86;66.35;100484.06;5056309;28;45366;-75
2022/12/08 15:39:56;;;;;;;;;32.50;29.75;;;;;5.84;66.46;100472.59;5057070;28;45631;-76
2022/12/08 15:42:22;;;;;;;;;35.25;35.00;;;;;5.83;66.89;100471.72;5056681;28;45512;-75
2022/12/08 15:44:47;;;;;;;;;31.50;28.50;;;;;5.89;66.61;100474.22;5055835;28;45317;-74
2022/12/08 15:47:21;;;;;;;;;35.00;30.75;;;;;5.81;66.78;100476.19;5055815;28;45404;-72
2022/12/08 15:49:48;;;;;;;;;40.50;30.25;;;;;5.87;66.56;100480.47;5056146;28;45556;-70
2022/12/08 15:52:18;;;;;;;;;43.25;37.75;;;;;5.86;66.75;100479.63;5056721;28;45423;-75
2022/12/08 15:54:44;;;;;;;;;33.00;32.00;;;;;5.74;66.53;100464.00;5056504;28;45343;-75
2022/12/08 15:57:18;;;;;;;;;38.50;31.75;;;;;5.71;66.65;100475.59;5056785;28;45629;-71
2022/12/08 15:59:43;;;;;;;;;36.50;33.75;;;;;5.73;66.87;100464.94;5056685;28;45335;-77
2022/12/08 16:02:13;;;;;;;;;35.25;27.00;;;;;5.71;67.03;100458.78;5038537;28;45601;-76
2022/12/08 16:04:40;;;;;;;;;36.25;32.00;;;;;5.77;66.85;100468.38;5056702;28;45402;-73
2022/12/08 16:07:19;;;;;;;;;31.25;31.25;;;;;5.78;66.26;100472.78;5056486;28;45413;-74
2022/12/08 16:09:45;;;;;;;;;36.25;29.75;;;;;5.77;66.78;100463.06;5056342;28;45390;-72
2022/12/08 16:15:03;;;;;;;;;35.25;31.50;;;;;5.71;66.01;100477.38;5041854;28;45393;-78
2022/12/08 16:17:30;;;;;;;;;36.75;36.75;;;;;5.66;67.19;100472.22;5058093;28;45280;-74
2022/12/08 16:19:55;;;;;;;;;36.00;33.75;;;;;5.53;67.56;100452.22;5056509;28;45379;-74
2022/12/08 16:22:26;;;;;;;;;42.25;37.25;;;;;5.64;67.31;100466.06;5055624;28;45583;-72
2022/12/08 16:24:52;;;;;;;;;36.00;30.75;;;;;5.63;67.17;100458.13;5037847;28;46078;-74
2022/12/08 16:27:28;;;;;;;;;37.25;33.00;;;;;5.72;66.82;100465.84;5056551;28;45446;-72
2022/12/08 16:29:56;;;;;;;;;36.00;36.00;;;;;5.70;66.92;100459.69;5038355;28;47848;-75
2022/12/08 16:32:22;;;;;;;;;41.00;31.50;;;;;5.67;66.67;100465.13;5056304;28;46253;-75
2022/12/08 16:34:50;;;;;;;;;38.75;34.25;;;;;5.60;67.75;100459.13;5057863;28;45689;-74
2022/12/08 16:37:22;;;;;;;;;36.00;32.00;;;;;5.63;67.66;100466.13;5056553;28;45307;-74
2022/12/08 16:39:49;;;;;;;;;41.25;37.50;;;;;5.57;67.37;100451.22;5055544;28;45496;-74
2022/12/08 16:42:39;;;;;;;;;45.00;38.50;;;;;5.66;67.95;100463.38;5056315;28;45264;-73
2022/12/08 16:45:07;;;;;;;;;47.00;38.00;;;;;5.69;67.37;100457.97;5056377;28;45582;-73
2022/12/08 16:47:33;;;;;;;;;41.00;38.25;;;;;5.68;67.69;100459.75;5055948;28;45421;-75
2022/12/08 16:49:59;;;;;;;;;41.50;37.75;;;;;5.52;67.45;100439.00;5057088;28;45593;-73
2022/12/08 16:52:24;;;;;;;;;45.00;39.00;;;;;5.63;68.18;100452.81;5056864;28;46177;-76
2022/12/08 16:54:49;;;;;;;;;50.75;40.50;;;;;5.64;67.61;100454.56;5056520;28;45635;-76
2022/12/08 16:57:15;;;;;;;;;41.75;36.50;;;;;5.60;68.47;100435.19;5038364;28;45455;-74
2022/12/08 16:59:40;;;;;;;;;41.00;36.00;;;;;5.75;67.86;100451.59;5055766;28;45732;-74
2022/12/08 17:02:06;;;;;;;;;35.50;31.25;;;;;5.72;67.66;100455.19;5055360;28;46196;-74
2022/12/08 17:04:32;;;;;;;;;36.00;29.00;;;;;5.78;67.99;100456.81;5055828;28;45338;-74
2022/12/08 17:06:58;;;;;;;;;41.75;37.50;;;;;5.76;68.06;100448.00;5056014;28;45311;-75